sensor_id;sensor_type;location;lat;lon;timestamp;pressure;altitude;pressure_sealevel;temperature;humidity
64644;BME280;51056;50.330;7.914;2023-08-07T00:00:46;100267.97;;;13.20;89.65
64644;BME280;51056;50.330;7.914;2023-08-07T00:03:49;100264.19;;;13.11;88.40
64644;BME280;51056;50.330;7.914;2023-08-07T00:06:52;100264.63;;;13.05;88.71
64644;BME280;51056;50.330;7.914;2023-08-07T00:09:55;100258.19;;;13.09;89.37
64644;BME280;51056;50.330;7.914;2023-08-07T00:12:58;100265.88;;;13.12;88.91
64644;BME280;51056;50.330;7.914;2023-08-07T00:16:02;100263.25;;;13.12;89.01
64644;BME280;51056;50.330;7.914;2023-08-07T00:19:05;100263.97;;;13.14;88.98
64644;BME280;51056;50.330;7.914;2023-08-07T00:22:08;100259.66;;;13.13;87.63
64644;BME280;51056;50.330;7.914;2023-08-07T00:25:11;100271.53;;;13.06;87.90
64644;BME280;51056;50.330;7.914;2023-08-07T00:28:14;100275.31;;;13.02;88.39
64644;BME280;51056;50.330;7.914;2023-08-07T00:31:18;100276.94;;;12.90;88.55
64644;BME280;51056;50.330;7.914;2023-08-07T00:34:21;100274.41;;;12.89;88.32
64644;BME280;51056;50.330;7.914;2023-08-07T00:37:26;100279.47;;;12.92;89.55
64644;BME280;51056;50.330;7.914;2023-08-07T00:40:36;100276.00;;;12.91;89.19
64644;BME280;51056;50.330;7.914;2023-08-07T00:43:39;100274.22;;;12.92;89.88
64644;BME280;51056;50.330;7.914;2023-08-07T00:46:43;100275.69;;;12.83;88.61
64644;BME280;51056;50.330;7.914;2023-08-07T00:49:48;100275.69;;;12.83;88.79
64644;BME280;51056;50.330;7.914;2023-08-07T00:52:51;100274.53;;;12.87;89.61
64644;BME280;51056;50.330;7.914;2023-08-07T00:55:54;100271.50;;;12.93;89.08
64644;BME280;51056;50.330;7.914;2023-08-07T00:58:58;100263.31;;;12.98;89.29
64644;BME280;51056;50.330;7.914;2023-08-07T01:02:02;100272.47;;;12.92;87.98
64644;BME280;51056;50.330;7.914;2023-08-07T01:15:30;100278.97;;;12.99;86.73
64644;BME280;51056;50.330;7.914;2023-08-07T01:18:36;100284.31;;;12.98;87.48
64644;BME280;51056;50.330;7.914;2023-08-07T01:21:45;100281.81;;;12.96;87.82
64644;BME280;51056;50.330;7.914;2023-08-07T01:24:51;100285.03;;;12.87;87.76
64644;BME280;51056;50.330;7.914;2023-08-07T01:28:27;100294.97;;;12.82;88.77
64644;BME280;51056;50.330;7.914;2023-08-07T01:31:33;100291.94;;;12.88;89.49
64644;BME280;51056;50.330;7.914;2023-08-07T01:34:40;100291.50;;;12.82;89.51
64644;BME280;51056;50.330;7.914;2023-08-07T01:37:57;100296.56;;;12.85;90.08
64644;BME280;51056;50.330;7.914;2023-08-07T01:41:03;100296.25;;;12.76;89.67
64644;BME280;51056;50.330;7.914;2023-08-07T01:44:08;100292.84;;;12.74;90.32
64644;BME280;51056;50.330;7.914;2023-08-07T01:47:11;100303.34;;;12.74;91.02
64644;BME280;51056;50.330;7.914;2023-08-07T01:50:14;100298.09;;;12.74;90.86
64644;BME280;51056;50.330;7.914;2023-08-07T01:53:17;100294.72;;;12.72;91.35
64644;BME280;51056;50.330;7.914;2023-08-07T01:56:21;100296.03;;;12.79;90.86
64644;BME280;51056;50.330;7.914;2023-08-07T01:59:24;100295.28;;;12.77;90.22
64644;BME280;51056;50.330;7.914;2023-08-07T02:02:28;100302.31;;;12.77;91.09
64644;BME280;51056;50.330;7.914;2023-08-07T02:05:31;100299.69;;;12.77;91.67
64644;BME280;51056;50.330;7.914;2023-08-07T02:08:34;100299.97;;;12.72;91.01
64644;BME280;51056;50.330;7.914;2023-08-07T02:11:37;100305.03;;;12.75;92.32
64644;BME280;51056;50.330;7.914;2023-08-07T02:14:41;100292.84;;;12.74;91.53
64644;BME280;51056;50.330;7.914;2023-08-07T02:17:44;100309.19;;;12.65;91.69
64644;BME280;51056;50.330;7.914;2023-08-07T02:20:47;100313.69;;;12.63;92.74
64644;BME280;51056;50.330;7.914;2023-08-07T02:23:51;100313.59;;;12.65;92.78
64644;BME280;51056;50.330;7.914;2023-08-07T02:26:54;100318.94;;;12.63;92.67
64644;BME280;51056;50.330;7.914;2023-08-07T02:29:57;100324.28;;;12.62;93.49
64644;BME280;51056;50.330;7.914;2023-08-07T02:33:00;100318.41;;;12.58;93.53
64644;BME280;51056;50.330;7.914;2023-08-07T02:36:03;100311.06;;;12.63;94.18
64644;BME280;51056;50.330;7.914;2023-08-07T02:39:08;100321.56;;;12.63;94.37
64644;BME280;51056;50.330;7.914;2023-08-07T02:42:11;100326.78;;;12.63;93.15
64644;BME280;51056;50.330;7.914;2023-08-07T02:45:14;100323.66;;;12.58;93.58
64644;BME280;51056;50.330;7.914;2023-08-07T02:48:17;100320.63;;;12.64;92.98
64644;BME280;51056;50.330;7.914;2023-08-07T02:51:20;100316.88;;;12.68;92.50
64644;BME280;51056;50.330;7.914;2023-08-07T02:54:24;100316.28;;;12.77;93.09
64644;BME280;51056;50.330;7.914;2023-08-07T02:57:27;100315.72;;;12.72;91.45
64644;BME280;51056;50.330;7.914;2023-08-07T03:00:30;100317.88;;;12.80;91.80
64644;BME280;51056;50.330;7.914;2023-08-07T03:03:34;100316.78;;;12.83;90.97
64644;BME280;51056;50.330;7.914;2023-08-07T03:06:37;100314.28;;;12.81;91.33
64644;BME280;51056;50.330;7.914;2023-08-07T03:09:41;100317.09;;;12.78;90.98
64644;BME280;51056;50.330;7.914;2023-08-07T03:12:44;100320.38;;;12.82;90.68
64644;BME280;51056;50.330;7.914;2023-08-07T03:15:47;100308.28;;;12.79;90.30
64644;BME280;51056;50.330;7.914;2023-08-07T03:18:52;100321.66;;;12.89;91.17
64644;BME280;51056;50.330;7.914;2023-08-07T03:21:55;100318.94;;;12.90;90.19
64644;BME280;51056;50.330;7.914;2023-08-07T03:24:59;100323.44;;;12.88;89.69
64644;BME280;51056;50.330;7.914;2023-08-07T03:28:02;100316.78;;;12.83;88.58
64644;BME280;51056;50.330;7.914;2023-08-07T03:31:06;100323.38;;;12.75;88.51
64644;BME280;51056;50.330;7.914;2023-08-07T03:34:12;100322.00;;;12.70;88.89
64644;BME280;51056;50.330;7.914;2023-08-07T03:37:15;100329.66;;;12.73;88.30
64644;BME280;51056;50.330;7.914;2023-08-07T03:40:18;100336.13;;;12.82;89.46
64644;BME280;51056;50.330;7.914;2023-08-07T03:43:21;100342.50;;;12.77;88.58
64644;BME280;51056;50.330;7.914;2023-08-07T03:46:25;100331.69;;;12.82;89.34
64644;BME280;51056;50.330;7.914;2023-08-07T03:49:28;100343.53;;;12.75;89.35
64644;BME280;51056;50.330;7.914;2023-08-07T03:52:31;100334.53;;;12.79;90.42
64644;BME280;51056;50.330;7.914;2023-08-07T03:55:35;100347.88;;;12.89;90.18
64644;BME280;51056;50.330;7.914;2023-08-07T03:58:38;100348.72;;;12.76;89.58
64644;BME280;51056;50.330;7.914;2023-08-07T04:01:42;100359.41;;;12.73;89.73
64644;BME280;51056;50.330;7.914;2023-08-07T04:04:46;100351.91;;;12.67;90.15
64644;BME280;51056;50.330;7.914;2023-08-07T04:07:49;100351.47;;;12.61;90.24
64644;BME280;51056;50.330;7.914;2023-08-07T04:11:00;100349.47;;;12.64;90.24
64644;BME280;51056;50.330;7.914;2023-08-07T04:14:03;100348.84;;;12.61;90.51
64644;BME280;51056;50.330;7.914;2023-08-07T04:17:07;100346.41;;;12.57;90.57
64644;BME280;51056;50.330;7.914;2023-08-07T04:20:10;100341.69;;;12.63;90.69
64644;BME280;51056;50.330;7.914;2023-08-07T04:23:15;100347.59;;;12.66;90.71
64644;BME280;51056;50.330;7.914;2023-08-07T04:26:18;100348.66;;;12.64;90.63
64644;BME280;51056;50.330;7.914;2023-08-07T04:29:21;100350.84;;;12.70;90.47
64644;BME280;51056;50.330;7.914;2023-08-07T04:32:25;100350.97;;;12.68;89.79
64644;BME280;51056;50.330;7.914;2023-08-07T04:35:28;100349.94;;;12.71;90.15
64644;BME280;51056;50.330;7.914;2023-08-07T04:38:31;100360.97;;;12.76;91.25
64644;BME280;51056;50.330;7.914;2023-08-07T04:41:35;100353.28;;;12.73;89.94
64644;BME280;51056;50.330;7.914;2023-08-07T04:44:38;100363.97;;;12.70;89.18
64644;BME280;51056;50.330;7.914;2023-08-07T04:47:42;100357.06;;;12.69;89.96
64644;BME280;51056;50.330;7.914;2023-08-07T04:50:45;100362.09;;;12.72;89.86
64644;BME280;51056;50.330;7.914;2023-08-07T04:53:48;100360.31;;;12.72;89.17
64644;BME280;51056;50.330;7.914;2023-08-07T04:56:53;100368.56;;;12.66;89.72
64644;BME280;51056;50.330;7.914;2023-08-07T04:59:56;100376.63;;;12.63;90.20
64644;BME280;51056;50.330;7.914;2023-08-07T05:03:00;100382.00;;;12.62;90.07
64644;BME280;51056;50.330;7.914;2023-08-07T05:06:05;100379.44;;;12.60;90.90
64644;BME280;51056;50.330;7.914;2023-08-07T05:09:08;100382.00;;;12.62;91.20
64644;BME280;51056;50.330;7.914;2023-08-07T05:12:13;100386.47;;;12.60;90.98
64644;BME280;51056;50.330;7.914;2023-08-07T05:15:17;100388.72;;;12.66;91.86
64644;BME280;51056;50.330;7.914;2023-08-07T05:18:20;100391.47;;;12.64;91.40
64644;BME280;51056;50.330;7.914;2023-08-07T05:21:24;100396.69;;;12.64;91.83
64644;BME280;51056;50.330;7.914;2023-08-07T05:24:27;100405.31;;;12.66;92.34
64644;BME280;51056;50.330;7.914;2023-08-07T05:27:30;100400.34;;;12.62;92.47
64644;BME280;51056;50.330;7.914;2023-08-07T05:30:33;100397.72;;;12.62;93.03
64644;BME280;51056;50.330;7.914;2023-08-07T05:33:36;100402.78;;;12.65;92.90
64644;BME280;51056;50.330;7.914;2023-08-07T05:36:40;100398.88;;;12.57;93.08
64644;BME280;51056;50.330;7.914;2023-08-07T05:39:44;100407.31;;;12.48;93.24
64644;BME280;51056;50.330;7.914;2023-08-07T05:42:47;100409.56;;;12.54;93.90
64644;BME280;51056;50.330;7.914;2023-08-07T05:45:51;100399.78;;;12.56;92.27
64644;BME280;51056;50.330;7.914;2023-08-07T05:48:54;100409.44;;;12.56;92.62
64644;BME280;51056;50.330;7.914;2023-08-07T05:51:57;100402.91;;;12.49;92.07
64644;BME280;51056;50.330;7.914;2023-08-07T05:55:00;100404.13;;;12.43;92.56
64644;BME280;51056;50.330;7.914;2023-08-07T05:58:04;100413.19;;;12.52;93.74
64644;BME280;51056;50.330;7.914;2023-08-07T06:01:07;100425.81;;;12.60;93.15
64644;BME280;51056;50.330;7.914;2023-08-07T06:04:11;100425.00;;;12.59;93.30
64644;BME280;51056;50.330;7.914;2023-08-07T06:07:14;100417.03;;;12.61;92.93
64644;BME280;51056;50.330;7.914;2023-08-07T06:10:18;100414.13;;;12.65;92.83
64644;BME280;51056;50.330;7.914;2023-08-07T06:13:21;100416.75;;;12.65;92.80
64644;BME280;51056;50.330;7.914;2023-08-07T06:16:24;100415.06;;;12.64;93.62
64644;BME280;51056;50.330;7.914;2023-08-07T06:19:27;100412.41;;;12.78;93.57
64644;BME280;51056;50.330;7.914;2023-08-07T06:22:31;100411.69;;;12.76;91.96
64644;BME280;51056;50.330;7.914;2023-08-07T06:25:35;100416.72;;;12.79;91.40
64644;BME280;51056;50.330;7.914;2023-08-07T06:28:39;100422.31;;;12.88;91.91
64644;BME280;51056;50.330;7.914;2023-08-07T06:31:43;100418.06;;;12.99;91.67
64644;BME280;51056;50.330;7.914;2023-08-07T06:34:46;100417.63;;;12.93;89.17
64644;BME280;51056;50.330;7.914;2023-08-07T06:37:49;100417.63;;;12.93;88.74
64644;BME280;51056;50.330;7.914;2023-08-07T06:40:53;100420.97;;;12.95;89.59
64644;BME280;51056;50.330;7.914;2023-08-07T06:43:56;100416.84;;;13.05;89.94
64644;BME280;51056;50.330;7.914;2023-08-07T06:46:59;100419.22;;;13.22;89.85
64644;BME280;51056;50.330;7.914;2023-08-07T06:50:02;100425.78;;;13.30;90.31
64644;BME280;51056;50.330;7.914;2023-08-07T06:53:06;100421.47;;;13.29;87.12
64644;BME280;51056;50.330;7.914;2023-08-07T06:56:09;100420.25;;;13.34;87.79
64644;BME280;51056;50.330;7.914;2023-08-07T06:59:12;100424.97;;;13.42;87.05
64644;BME280;51056;50.330;7.914;2023-08-07T07:02:15;100428.16;;;13.47;85.45
64644;BME280;51056;50.330;7.914;2023-08-07T07:05:19;100441.53;;;13.57;85.41
64644;BME280;51056;50.330;7.914;2023-08-07T07:08:23;100437.22;;;13.68;85.28
64644;BME280;51056;50.330;7.914;2023-08-07T07:11:26;100441.75;;;13.66;82.52
64644;BME280;51056;50.330;7.914;2023-08-07T07:14:29;100443.84;;;13.74;83.48
64644;BME280;51056;50.330;7.914;2023-08-07T07:17:32;100443.66;;;13.77;83.36
64644;BME280;51056;50.330;7.914;2023-08-07T07:20:36;100451.97;;;13.84;84.06
64644;BME280;51056;50.330;7.914;2023-08-07T07:23:39;100458.06;;;13.84;82.43
64644;BME280;51056;50.330;7.914;2023-08-07T07:26:42;100463.13;;;13.87;82.31
64644;BME280;51056;50.330;7.914;2023-08-07T07:29:46;100461.56;;;13.85;82.52
64644;BME280;51056;50.330;7.914;2023-08-07T07:32:50;100461.75;;;13.82;80.79
64644;BME280;51056;50.330;7.914;2023-08-07T07:35:52;100483.28;;;13.74;81.11
64644;BME280;51056;50.330;7.914;2023-08-07T07:38:55;100472.88;;;13.72;81.16
64644;BME280;51056;50.330;7.914;2023-08-07T07:41:59;100477.78;;;13.64;80.15
64644;BME280;51056;50.330;7.914;2023-08-07T07:45:02;100488.69;;;13.58;80.80
64644;BME280;51056;50.330;7.914;2023-08-07T07:48:06;100485.88;;;13.61;81.27
64644;BME280;51056;50.330;7.914;2023-08-07T07:51:10;100493.75;;;13.61;81.90
64644;BME280;51056;50.330;7.914;2023-08-07T07:54:14;100494.16;;;13.55;82.73
64644;BME280;51056;50.330;7.914;2023-08-07T07:57:17;100501.31;;;13.53;82.23
64644;BME280;51056;50.330;7.914;2023-08-07T08:00:21;100498.63;;;13.40;82.71
64644;BME280;51056;50.330;7.914;2023-08-07T08:03:25;100508.56;;;13.35;83.79
64644;BME280;51056;50.330;7.914;2023-08-07T08:06:29;100508.88;;;13.31;83.88
64644;BME280;51056;50.330;7.914;2023-08-07T08:09:34;100526.19;;;13.33;84.06
64644;BME280;51056;50.330;7.914;2023-08-07T08:12:37;100520.97;;;13.19;84.59
64644;BME280;51056;50.330;7.914;2023-08-07T08:15:40;100524.81;;;13.13;85.46
64644;BME280;51056;50.330;7.914;2023-08-07T08:18:43;100538.44;;;13.06;85.96
64644;BME280;51056;50.330;7.914;2023-08-07T08:21:46;100541.72;;;13.09;86.69
64644;BME280;51056;50.330;7.914;2023-08-07T08:24:49;100545.81;;;13.13;86.82
64644;BME280;51056;50.330;7.914;2023-08-07T08:27:53;100542.25;;;13.14;87.49
64644;BME280;51056;50.330;7.914;2023-08-07T08:30:56;100551.19;;;13.12;86.70
64644;BME280;51056;50.330;7.914;2023-08-07T08:34:00;100551.25;;;13.10;87.77
64644;BME280;51056;50.330;7.914;2023-08-07T08:37:03;100559.44;;;13.06;87.72
64644;BME280;51056;50.330;7.914;2023-08-07T08:40:09;100555.84;;;13.07;88.02
64644;BME280;51056;50.330;7.914;2023-08-07T08:43:20;100571.25;;;12.84;88.28
64644;BME280;51056;50.330;7.914;2023-08-07T08:46:24;100574.72;;;12.85;89.03
64644;BME280;51056;50.330;7.914;2023-08-07T08:49:33;100574.88;;;12.82;89.47
64644;BME280;51056;50.330;7.914;2023-08-07T08:52:43;100582.56;;;12.85;89.70
64644;BME280;51056;50.330;7.914;2023-08-07T08:55:47;100591.41;;;12.84;89.51
64644;BME280;51056;50.330;7.914;2023-08-07T08:58:51;100587.63;;;12.88;89.35
64644;BME280;51056;50.330;7.914;2023-08-07T09:01:55;100585.88;;;13.02;90.94
64644;BME280;51056;50.330;7.914;2023-08-07T09:05:00;100613.97;;;13.00;89.70
64644;BME280;51056;50.330;7.914;2023-08-07T09:08:03;100592.31;;;12.83;90.00
64644;BME280;51056;50.330;7.914;2023-08-07T09:11:08;100591.59;;;12.80;90.56
64644;BME280;51056;50.330;7.914;2023-08-07T09:14:15;100602.81;;;12.83;91.02
64644;BME280;51056;50.330;7.914;2023-08-07T09:20:29;100613.03;;;12.87;93.03
64644;BME280;51056;50.330;7.914;2023-08-07T09:23:32;100616.50;;;12.88;92.55
64644;BME280;51056;50.330;7.914;2023-08-07T09:26:36;100627.03;;;13.02;93.47
64644;BME280;51056;50.330;7.914;2023-08-07T09:29:40;100619.69;;;13.07;94.24
64644;BME280;51056;50.330;7.914;2023-08-07T09:32:47;100620.81;;;13.17;93.90
64644;BME280;51056;50.330;7.914;2023-08-07T09:35:50;100623.38;;;13.19;91.88
64644;BME280;51056;50.330;7.914;2023-08-07T09:38:53;100616.63;;;13.29;93.01
64644;BME280;51056;50.330;7.914;2023-08-07T09:41:57;100617.19;;;13.34;92.33
64644;BME280;51056;50.330;7.914;2023-08-07T09:45:00;100618.78;;;13.37;90.36
64644;BME280;51056;50.330;7.914;2023-08-07T09:48:04;100623.44;;;13.46;90.94
64644;BME280;51056;50.330;7.914;2023-08-07T09:51:12;100624.59;;;13.42;89.82
64644;BME280;51056;50.330;7.914;2023-08-07T09:54:15;100620.06;;;13.58;90.54
64644;BME280;51056;50.330;7.914;2023-08-07T09:57:19;100619.78;;;13.63;88.41
64644;BME280;51056;50.330;7.914;2023-08-07T10:04:34;100632.63;;;13.67;87.31
64644;BME280;51056;50.330;7.914;2023-08-07T10:07:39;100653.25;;;13.73;86.91
64644;BME280;51056;50.330;7.914;2023-08-07T10:11:08;100648.16;;;13.85;87.91
64644;BME280;51056;50.330;7.914;2023-08-07T10:15:03;100651.19;;;13.79;86.03
64644;BME280;51056;50.330;7.914;2023-08-07T10:18:07;100638.75;;;13.95;86.41
64644;BME280;51056;50.330;7.914;2023-08-07T10:21:11;100641.50;;;14.06;85.12
64644;BME280;51056;50.330;7.914;2023-08-07T10:24:15;100641.88;;;14.14;84.58
64644;BME280;51056;50.330;7.914;2023-08-07T10:59:11;100658.13;;;15.12;77.40
64644;BME280;51056;50.330;7.914;2023-08-07T11:02:26;100657.38;;;15.35;79.35
64644;BME280;51056;50.330;7.914;2023-08-07T11:05:32;100662.31;;;15.40;76.29
64644;BME280;51056;50.330;7.914;2023-08-07T11:08:36;100666.88;;;15.38;76.01
64644;BME280;51056;50.330;7.914;2023-08-07T11:11:43;100670.56;;;15.35;75.82
64644;BME280;51056;50.330;7.914;2023-08-07T11:14:47;100677.84;;;15.32;75.23
64644;BME280;51056;50.330;7.914;2023-08-07T11:17:50;100676.25;;;15.42;77.35
64644;BME280;51056;50.330;7.914;2023-08-07T11:20:54;100679.59;;;15.44;75.25
64644;BME280;51056;50.330;7.914;2023-08-07T11:23:58;100691.50;;;15.50;75.53
64644;BME280;51056;50.330;7.914;2023-08-07T11:27:02;100678.84;;;15.55;76.13
64644;BME280;51056;50.330;7.914;2023-08-07T11:30:06;100673.47;;;15.69;76.45
64644;BME280;51056;50.330;7.914;2023-08-07T11:33:14;100680.00;;;15.76;75.50
64644;BME280;51056;50.330;7.914;2023-08-07T11:36:18;100676.41;;;15.77;73.48
64644;BME280;51056;50.330;7.914;2023-08-07T11:39:23;100671.09;;;15.90;75.02
64644;BME280;51056;50.330;7.914;2023-08-07T11:42:28;100674.34;;;15.94;72.31
64644;BME280;51056;50.330;7.914;2023-08-07T11:45:36;100674.47;;;15.92;71.91
64644;BME280;51056;50.330;7.914;2023-08-07T11:48:41;100672.84;;;16.02;71.65
64644;BME280;51056;50.330;7.914;2023-08-07T11:51:45;100675.50;;;16.02;72.07
64644;BME280;51056;50.330;7.914;2023-08-07T11:54:49;100674.44;;;16.05;68.80
64644;BME280;51056;50.330;7.914;2023-08-07T11:57:53;100675.19;;;15.94;69.86
64644;BME280;51056;50.330;7.914;2023-08-07T12:00:56;100671.50;;;15.97;70.35
64644;BME280;51056;50.330;7.914;2023-08-07T12:07:09;100677.78;;;16.07;70.50
64644;BME280;51056;50.330;7.914;2023-08-07T12:10:14;100670.56;;;16.22;70.92
64644;BME280;51056;50.330;7.914;2023-08-07T12:13:20;100683.22;;;16.17;68.23
64644;BME280;51056;50.330;7.914;2023-08-07T12:16:24;100681.38;;;16.06;69.42
64644;BME280;51056;50.330;7.914;2023-08-07T12:19:41;100676.28;;;16.16;69.72
64644;BME280;51056;50.330;7.914;2023-08-07T12:22:46;100670.59;;;16.09;67.81
64644;BME280;51056;50.330;7.914;2023-08-07T12:25:50;100670.03;;;16.17;68.71
64644;BME280;51056;50.330;7.914;2023-08-07T12:28:55;100668.59;;;16.13;67.28
64644;BME280;51056;50.330;7.914;2023-08-07T12:31:58;100665.97;;;16.24;67.31
64644;BME280;51056;50.330;7.914;2023-08-07T12:35:04;100671.38;;;16.46;67.39
64644;BME280;51056;50.330;7.914;2023-08-07T12:38:10;100668.69;;;16.70;67.17
64644;BME280;51056;50.330;7.914;2023-08-07T12:41:14;100655.66;;;16.80;66.65
64644;BME280;51056;50.330;7.914;2023-08-07T12:44:17;100659.16;;;16.92;65.36
64644;BME280;51056;50.330;7.914;2023-08-07T12:47:20;100656.03;;;17.09;65.50
64644;BME280;51056;50.330;7.914;2023-08-07T12:50:24;100658.94;;;17.29;65.09
64644;BME280;51056;50.330;7.914;2023-08-07T12:53:28;100657.63;;;17.46;62.91
64644;BME280;51056;50.330;7.914;2023-08-07T12:56:32;100643.16;;;17.72;62.74
64644;BME280;51056;50.330;7.914;2023-08-07T12:59:35;100648.19;;;17.98;63.94
64644;BME280;51056;50.330;7.914;2023-08-07T13:02:46;100636.72;;;18.08;60.74
64644;BME280;51056;50.330;7.914;2023-08-07T13:05:49;100641.91;;;18.31;60.22
64644;BME280;51056;50.330;7.914;2023-08-07T13:08:53;100628.06;;;18.39;58.01
64644;BME280;51056;50.330;7.914;2023-08-07T13:11:56;100630.97;;;18.35;58.32
64644;BME280;51056;50.330;7.914;2023-08-07T13:15:00;100642.97;;;18.40;58.15
64644;BME280;51056;50.330;7.914;2023-08-07T13:18:04;100640.56;;;18.36;58.73
64644;BME280;51056;50.330;7.914;2023-08-07T13:21:07;100640.72;;;18.56;59.28
64644;BME280;51056;50.330;7.914;2023-08-07T13:24:10;100616.25;;;18.85;57.47
64644;BME280;51056;50.330;7.914;2023-08-07T13:27:14;100623.72;;;19.31;58.03
64644;BME280;51056;50.330;7.914;2023-08-07T13:30:17;100625.47;;;19.61;54.43
64644;BME280;51056;50.330;7.914;2023-08-07T13:33:21;100625.81;;;19.87;54.42
64644;BME280;51056;50.330;7.914;2023-08-07T13:36:25;100625.16;;;19.95;52.93
64644;BME280;51056;50.330;7.914;2023-08-07T13:39:28;100624.72;;;20.09;51.59
64644;BME280;51056;50.330;7.914;2023-08-07T13:42:32;100638.69;;;19.92;51.23
64644;BME280;51056;50.330;7.914;2023-08-07T13:45:37;100628.91;;;19.83;51.90
64644;BME280;51056;50.330;7.914;2023-08-07T13:48:41;100638.53;;;19.93;49.61
64644;BME280;51056;50.330;7.914;2023-08-07T13:51:44;100632.41;;;19.93;50.14
64644;BME280;51056;50.330;7.914;2023-08-07T13:54:47;100623.91;;;20.18;49.26
64644;BME280;51056;50.330;7.914;2023-08-07T13:57:51;100633.13;;;20.53;46.82
64644;BME280;51056;50.330;7.914;2023-08-07T14:00:55;100630.31;;;20.55;46.56
64644;BME280;51056;50.330;7.914;2023-08-07T14:03:58;100626.75;;;20.83;46.04
64644;BME280;51056;50.330;7.914;2023-08-07T14:11:20;100631.16;;;22.13;42.77
64644;BME280;51056;50.330;7.914;2023-08-07T14:14:24;100618.72;;;22.75;46.06
64644;BME280;51056;50.330;7.914;2023-08-07T14:17:27;100636.72;;;23.33;39.82
64644;BME280;51056;50.330;7.914;2023-08-07T14:20:30;100633.72;;;23.36;43.29
64644;BME280;51056;50.330;7.914;2023-08-07T14:23:34;100629.81;;;24.48;37.52
64644;BME280;51056;50.330;7.914;2023-08-07T14:26:37;100636.88;;;25.21;34.94
64644;BME280;51056;50.330;7.914;2023-08-07T14:29:41;100646.97;;;24.13;36.04
64644;BME280;51056;50.330;7.914;2023-08-07T14:32:44;100646.72;;;23.05;37.65
64644;BME280;51056;50.330;7.914;2023-08-07T14:35:50;100647.28;;;22.11;38.86
64644;BME280;51056;50.330;7.914;2023-08-07T14:38:53;100655.34;;;21.83;40.50
64644;BME280;51056;50.330;7.914;2023-08-07T14:41:56;100662.03;;;21.70;41.15
64644;BME280;51056;50.330;7.914;2023-08-07T14:45:00;100656.06;;;21.58;42.36
64644;BME280;51056;50.330;7.914;2023-08-07T14:48:03;100668.47;;;21.30;43.12
64644;BME280;51056;50.330;7.914;2023-08-07T14:51:06;100658.97;;;22.28;50.14
64644;BME280;51056;50.330;7.914;2023-08-07T14:54:10;100651.50;;;23.62;42.15
64644;BME280;51056;50.330;7.914;2023-08-07T14:57:13;100646.19;;;24.45;38.78
64644;BME280;51056;50.330;7.914;2023-08-07T15:00:17;100642.88;;;26.40;37.08
64644;BME280;51056;50.330;7.914;2023-08-07T15:03:21;100639.19;;;27.08;34.13
64644;BME280;51056;50.330;7.914;2023-08-07T15:06:24;100640.25;;;28.52;33.04
64644;BME280;51056;50.330;7.914;2023-08-07T15:09:28;100642.88;;;28.74;30.28
64644;BME280;51056;50.330;7.914;2023-08-07T15:12:31;100648.59;;;27.78;30.38
64644;BME280;51056;50.330;7.914;2023-08-07T15:15:34;100647.91;;;26.81;31.85
64644;BME280;51056;50.330;7.914;2023-08-07T15:18:38;100644.00;;;26.69;31.60
64644;BME280;51056;50.330;7.914;2023-08-07T15:21:41;100638.00;;;28.13;30.02
64644;BME280;51056;50.330;7.914;2023-08-07T15:24:46;100633.34;;;28.71;29.74
64644;BME280;51056;50.330;7.914;2023-08-07T15:27:49;100645.22;;;27.40;29.61
64644;BME280;51056;50.330;7.914;2023-08-07T15:30:53;100641.28;;;26.54;31.79
64644;BME280;51056;50.330;7.914;2023-08-07T15:33:56;100643.53;;;26.19;32.29
64644;BME280;51056;50.330;7.914;2023-08-07T15:37:01;100649.78;;;27.40;32.12
64644;BME280;51056;50.330;7.914;2023-08-07T15:40:05;100644.13;;;27.34;31.02
64644;BME280;51056;50.330;7.914;2023-08-07T15:43:08;100653.13;;;26.36;30.62
64644;BME280;51056;50.330;7.914;2023-08-07T15:46:12;100646.94;;;25.90;32.31
64644;BME280;51056;50.330;7.914;2023-08-07T15:49:16;100646.50;;;25.39;32.21
64644;BME280;51056;50.330;7.914;2023-08-07T15:52:19;100655.63;;;24.15;35.51
64644;BME280;51056;50.330;7.914;2023-08-07T15:55:23;100652.97;;;24.89;35.28
64644;BME280;51056;50.330;7.914;2023-08-07T15:58:26;100658.72;;;24.45;36.64
64644;BME280;51056;50.330;7.914;2023-08-07T16:01:29;100640.31;;;25.69;35.96
64644;BME280;51056;50.330;7.914;2023-08-07T16:04:33;100648.66;;;24.79;33.34
64644;BME280;51056;50.330;7.914;2023-08-07T16:07:36;100645.97;;;24.30;35.25
64644;BME280;51056;50.330;7.914;2023-08-07T16:10:40;100645.09;;;22.86;38.59
64644;BME280;51056;50.330;7.914;2023-08-07T16:13:44;100659.00;;;22.72;39.08
64644;BME280;51056;50.330;7.914;2023-08-07T16:17:06;100651.25;;;23.13;41.93
64644;BME280;51056;50.330;7.914;2023-08-07T16:20:10;100645.66;;;23.24;39.35
64644;BME280;51056;50.330;7.914;2023-08-07T16:23:14;100642.81;;;23.26;38.71
64644;BME280;51056;50.330;7.914;2023-08-07T16:26:23;100638.13;;;24.21;44.68
64644;BME280;51056;50.330;7.914;2023-08-07T16:29:46;100637.78;;;23.57;37.74
64644;BME280;51056;50.330;7.914;2023-08-07T16:32:58;100633.97;;;23.59;37.56
64644;BME280;51056;50.330;7.914;2023-08-07T16:36:01;100641.03;;;23.34;37.70
64644;BME280;51056;50.330;7.914;2023-08-07T16:39:04;100638.09;;;23.46;37.27
64644;BME280;51056;50.330;7.914;2023-08-07T16:42:08;100637.38;;;22.75;39.70
64644;BME280;51056;50.330;7.914;2023-08-07T16:45:11;100637.13;;;22.68;41.05
64644;BME280;51056;50.330;7.914;2023-08-07T16:48:15;100637.09;;;22.86;41.75
64644;BME280;51056;50.330;7.914;2023-08-07T16:51:18;100637.72;;;22.80;43.03
64644;BME280;51056;50.330;7.914;2023-08-07T16:54:25;100641.28;;;22.63;41.17
64644;BME280;51056;50.330;7.914;2023-08-07T16:57:29;100640.69;;;22.33;41.68
64644;BME280;51056;50.330;7.914;2023-08-07T17:00:32;100633.25;;;22.19;42.08